Royal Melbourne — WDC2865 — position and weather

sailwx.info

Track history (hours):
 
Tides and Currents Weather Stations Pressure Air Temp Water Temp Dewpoint Dewpoint Depression Visibility Wind Speed Wind Dir Waves Ship Positions

Royal Melbourne

Owner: Harley Marine Services, Inc, Seattle, WA. More information available from US FCC via Universal Licensing System and Coast Guard Vessel Documentation Center.

Last reported at 2015-Jan-27 16:34 UTC. Time now 2015-Jan-27 16:58 UTC.
Position N 37°46' W 122°21'.

Length 30 m; draft 2 m.

Type: Tug. MMSI: 366998830.

Date/timePositionNaut miles runAvg speedWind from/ knotsBaromVisibWave heightAir tempDewpointWater temp
2015-Jan-27 16:34N 37°46' W 122°21'0 0.0
2015-Jan-27 15:34N 37°46' W 122°21'0 0.0
2015-Jan-27 14:34N 37°46' W 122°21'0 0.2
2015-Jan-27 13:33N 37°46' W 122°20'0 0.1
2015-Jan-27 12:33N 37°46' W 122°20'7 6.6
2015-Jan-27 11:34N 37°52' W 122°24'4 3.6
2015-Jan-27 10:33N 37°55' W 122°22'0 0.0
2015-Jan-27 09:32N 37°55' W 122°22'0 0.0
2015-Jan-27 08:32N 37°55' W 122°22'0 0.0
2015-Jan-27 07:32N 37°55' W 122°22'0 0.0
2015-Jan-27 06:32N 37°55' W 122°22'0 0.0
2015-Jan-27 05:32N 37°55' W 122°22'0 0.0
2015-Jan-27 04:32N 37°55' W 122°22'0 0.0
2015-Jan-27 03:32N 37°55' W 122°22'0 0.0
2015-Jan-27 02:32N 37°55' W 122°22'0 0.0
2015-Jan-27 01:32N 37°55' W 122°22'0 0.0
2015-Jan-27 00:32N 37°55' W 122°22'0 0.0
2015-Jan-26 23:32N 37°55' W 122°22'0 0.0
2015-Jan-26 22:32N 37°55' W 122°22'0 0.0
2015-Jan-26 21:32N 37°55' W 122°22'0 0.0
2015-Jan-26 20:32N 37°55' W 122°22'0 0.0
2015-Jan-26 19:32N 37°55' W 122°22'0 0.0
2015-Jan-26 18:32N 37°55' W 122°22'0 0.0
2015-Jan-26 17:32N 37°55' W 122°22'0 0.0
2015-Jan-26 16:32N 37°55' W 122°22'0 0.0
2015-Jan-26 15:32N 37°55' W 122°22'0 0.0
2015-Jan-26 14:33N 37°55' W 122°22'2 2.4
2015-Jan-26 13:33N 37°55' W 122°25'6 6.0
2015-Jan-26 12:33N 38°01' W 122°23'6 6.0
2015-Jan-26 11:33N 38°03' W 122°16'0 0.4
2015-Jan-26 10:30N 38°03' W 122°16'0 0.0
2015-Jan-26 09:29N 38°03' W 122°16'0 0.0
2015-Jan-26 08:29N 38°03' W 122°16'0 0.0
2015-Jan-26 07:29N 38°03' W 122°16'0 0.0
2015-Jan-26 06:29N 38°03' W 122°16'0 0.0
2015-Jan-26 05:29N 38°03' W 122°16'0 0.0
2015-Jan-26 04:17N 38°03' W 122°16'0 0.0
2015-Jan-26 03:23N 38°03' W 122°16'1 0.6
2015-Jan-26 02:33N 38°03' W 122°16'4 4.4
2015-Jan-26 01:33N 38°02' W 122°22'6 5.9
2015-Jan-26 00:33N 37°57' W 122°26'9 8.9
2015-Jan-25 23:34N 37°49' W 122°21'4 3.5
2015-Jan-25 22:31N 37°48' W 122°17'0 0.0
2015-Jan-25 21:31N 37°48' W 122°17'0 0.0
2015-Jan-25 20:31N 37°48' W 122°17'0 0.0
2015-Jan-25 19:31N 37°48' W 122°17'0 0.0
2015-Jan-25 18:31N 37°48' W 122°17'0 0.0
2015-Jan-25 17:31N 37°48' W 122°17'0 0.0
2015-Jan-25 16:31N 37°48' W 122°17'0 0.0
2015-Jan-25 15:31N 37°48' W 122°17'0 0.0
2015-Jan-25 14:31N 37°48' W 122°17'0 0.0
2015-Jan-25 13:31N 37°48' W 122°17'0 0.0
2015-Jan-25 12:31N 37°48' W 122°17'0 0.0
2015-Jan-25 11:31N 37°48' W 122°17'0 0.0
2015-Jan-25 10:31N 37°48' W 122°17'0 0.0
2015-Jan-25 09:31N 37°48' W 122°17'0 0.0
2015-Jan-25 08:34N 37°48' W 122°17'2 2.5
2015-Jan-25 07:34N 37°48' W 122°20'5 5.0
2015-Jan-25 06:34N 37°43' W 122°20'0 0.3
2015-Jan-25 05:34N 37°43' W 122°21'0 0.1
2015-Jan-25 04:33N 37°43' W 122°20'0 0.0
2015-Jan-25 03:34N 37°43' W 122°20'0 0.0
2015-Jan-25 02:34N 37°43' W 122°20'5 4.6
2015-Jan-25 01:34N 37°48' W 122°19'0 0.1
2015-Jan-25 00:32N 37°48' W 122°19'0 0.0
2015-Jan-24 23:32N 37°48' W 122°19'0 0.0
2015-Jan-24 22:32N 37°48' W 122°19'1 1.0
2015-Jan-24 21:31N 37°49' W 122°19'0 0.0
2015-Jan-24 20:31N 37°49' W 122°19'0 0.0
2015-Jan-24 19:29N 37°49' W 122°19'2 2.0
2015-Jan-24 18:33N 37°49' W 122°21'6 5.6
2015-Jan-24 17:33N 37°55' W 122°22'0 0.0
2015-Jan-24 16:31N 37°55' W 122°22'0 0.0
2015-Jan-24 15:28N 37°55' W 122°22'0 0.0
2015-Jan-24 14:28N 37°55' W 122°22'0 0.0
2015-Jan-24 13:31N 37°55' W 122°22'0 0.0
2015-Jan-24 12:28N 37°55' W 122°22'0 0.0
2015-Jan-24 11:28N 37°55' W 122°22'0 0.0
2015-Jan-24 10:33N 37°55' W 122°22'5 4.6
2015-Jan-24 09:33N 37°51' W 122°23'5 4.9
2015-Jan-24 08:33N 37°46' W 122°21'0 0.0
2015-Jan-24 07:33N 37°46' W 122°21'0 0.1
2015-Jan-24 06:33N 37°46' W 122°21'0 0.1
2015-Jan-24 05:33N 37°46' W 122°21'0 0.3
2015-Jan-24 04:33N 37°46' W 122°21'0 0.0
2015-Jan-24 03:33N 37°46' W 122°21'0 0.0
2015-Jan-24 02:30N 37°46' W 122°21'0 0.2
2015-Jan-24 01:33N 37°46' W 122°21'2 2.2
2015-Jan-24 00:33N 37°48' W 122°19'0 0.0
2015-Jan-23 23:33N 37°48' W 122°19'0 0.0
2015-Jan-23 22:33N 37°48' W 122°19'0 0.0
2015-Jan-23 21:33N 37°48' W 122°19'0 0.0
2015-Jan-23 20:33N 37°48' W 122°19'0 0.0
2015-Jan-23 19:33N 37°48' W 122°19'0 0.0
2015-Jan-23 18:33N 37°48' W 122°19'0 0.4
2015-Jan-23 17:33N 37°48' W 122°19'0 0.0
2015-Jan-23 16:33N 37°48' W 122°19'0 0.0
2015-Jan-23 15:33N 37°48' W 122°19'0 0.0
2015-Jan-23 14:33N 37°48' W 122°19'0 0.0
2015-Jan-23 13:33N 37°48' W 122°19'3 2.8
2015-Jan-23 12:33N 37°45' W 122°20'1 0.8
2015-Jan-23 11:33N 37°44' W 122°20'0 0.2
2015-Jan-23 10:33N 37°44' W 122°20'0 0.0
2015-Jan-23 09:33N 37°44' W 122°20'0 0.0
2015-Jan-23 08:33N 37°44' W 122°20'0 0.0
2015-Jan-23 07:33N 37°44' W 122°20'0 0.0
2015-Jan-23 06:33N 37°44' W 122°20'3 3.0
2015-Jan-23 05:33N 37°47' W 122°21'2 1.7
2015-Jan-23 04:23N 37°49' W 122°19'0 0.0
2015-Jan-23 03:29N 37°49' W 122°19'0 0.0
2015-Jan-23 02:33N 37°49' W 122°19'1 0.8
2015-Jan-23 01:33N 37°49' W 122°20'6 6.5
2015-Jan-23 00:33N 37°54' W 122°25'3 2.5
2015-Jan-22 23:33N 37°55' W 122°22'0 0.0
2015-Jan-22 22:33N 37°55' W 122°22'0 0.0
2015-Jan-22 21:33N 37°55' W 122°22'0 0.0
2015-Jan-22 20:33N 37°55' W 122°22'0 0.0
2015-Jan-22 19:27N 37°55' W 122°22'0 0.0
2015-Jan-22 18:33N 37°55' W 122°22'0 0.0
2015-Jan-22 17:27N 37°55' W 122°22'0 0.0
2015-Jan-22 16:33N 37°55' W 122°22'0 0.0
2015-Jan-22 15:33N 37°55' W 122°22'0 0.0
2015-Jan-22 14:33N 37°55' W 122°22'0 0.0
2015-Jan-22 13:33N 37°55' W 122°22'0 0.0
2015-Jan-22 12:33N 37°55' W 122°22'0 0.0
2015-Jan-22 11:27N 37°55' W 122°22'0 0.0
2015-Jan-22 10:33N 37°55' W 122°22'0 0.0
2015-Jan-22 09:33N 37°55' W 122°22'4 3.7
2015-Jan-22 08:33N 37°57' W 122°26'7 6.7
2015-Jan-22 07:31N 38°02' W 122°21'4 0.3
2015-Jan-21 19:29N 38°03' W 122°16'0 0.0
2015-Jan-21 18:33N 38°03' W 122°16'0 0.0
2015-Jan-21 17:33N 38°03' W 122°16'0 0.0
2015-Jan-21 16:33N 38°03' W 122°16'0 0.0
2015-Jan-21 15:33N 38°03' W 122°16'0 0.0
2015-Jan-21 14:33N 38°03' W 122°16'0 0.0
2015-Jan-21 13:34N 38°03' W 122°16'6 1.7
2015-Jan-21 10:07N 38°02' W 122°08'0 0.0
2015-Jan-21 09:33N 38°02' W 122°08'0 0.0
2015-Jan-21 08:33N 38°02' W 122°08'0 0.0
2015-Jan-21 07:33N 38°02' W 122°08'0 0.0
2015-Jan-21 06:26N 38°02' W 122°08'0 0.0
2015-Jan-21 04:33N 38°02' W 122°08'0 0.0
2015-Jan-21 03:33N 38°02' W 122°08'0 0.0
2015-Jan-21 02:27N 38°02' W 122°08'0 0.0
2015-Jan-20 23:05N 38°02' W 122°08'3 2.9
2015-Jan-20 22:10N 38°03' W 122°11'6 9.2
2015-Jan-20 21:33N 38°03' W 122°19'8 8.4
2015-Jan-20 20:34N 37°57' W 122°26'9 9.1
2015-Jan-20 19:33N 37°49' W 122°21'3 3.3
2015-Jan-20 18:32N 37°48' W 122°17'0 0.0
2015-Jan-20 17:32N 37°48' W 122°17'0 0.0
2015-Jan-20 16:32N 37°48' W 122°17'3 3.4
2015-Jan-20 15:33N 37°47' W 122°21'2 2.3
2015-Jan-20 14:33N 37°45' W 122°21'0 0.3
2015-Jan-20 13:33N 37°45' W 122°21'0 0.0
2015-Jan-20 12:33N 37°45' W 122°21'0 0.0
2015-Jan-20 11:33N 37°45' W 122°21'0 0.0
2015-Jan-20 10:33N 37°45' W 122°21'1 0.5
2015-Jan-20 09:33N 37°45' W 122°21'0 0.2
2015-Jan-20 08:33N 37°45' W 122°21'0 0.0
2015-Jan-20 07:33N 37°45' W 122°21'0 0.0
2015-Jan-20 06:33N 37°45' W 122°20'0 0.0
2015-Jan-20 05:30N 37°45' W 122°21'0 0.0
2015-Jan-20 04:31N 37°45' W 122°21'0 0.0
2015-Jan-20 03:33N 37°45' W 122°21'0 0.1
2015-Jan-20 02:31N 37°45' W 122°20'5 5.3
2015-Jan-20 01:33N 37°50' W 122°23'5 5.3
2015-Jan-20 00:33N 37°55' W 122°22'0 0.0
2015-Jan-19 23:29N 37°55' W 122°22'0 0.0
2015-Jan-19 22:29N 37°55' W 122°22'0 0.0
2015-Jan-19 21:29N 37°55' W 122°22'0 0.0
2015-Jan-19 20:32N 37°55' W 122°22'0 0.0
2015-Jan-19 19:32N 37°55' W 122°22'0 0.0
2015-Jan-19 18:32N 37°55' W 122°22'0 0.0
2015-Jan-19 17:32N 37°55' W 122°22'0 0.0
2015-Jan-19 16:32N 37°55' W 122°22'0 0.0
2015-Jan-19 15:32N 37°55' W 122°22'0 0.0
2015-Jan-19 14:33N 37°55' W 122°22'3 3.2
2015-Jan-19 13:33N 37°56' W 122°26'7 6.7
2015-Jan-19 12:30N 38°02' W 122°21'4 0.3
2015-Jan-18 21:07N 38°03' W 122°16'3 5.2
2015-Jan-18 20:27N 38°03' W 122°20'7 7.8
2015-Jan-18 19:33N 37°57' W 122°26'9 8.6
2015-Jan-18 18:33N 37°49' W 122°23'7 7.3
2015-Jan-18 17:33N 37°42' W 122°19'0 0.0
2015-Jan-18 16:29N 37°42' W 122°19'0 0.0
2015-Jan-18 15:32N 37°42' W 122°19'0 0.0
2015-Jan-18 14:26N 37°42' W 122°19'0 0.1
2015-Jan-18 13:32N 37°42' W 122°19'0 0.2
2015-Jan-18 12:32N 37°43' W 122°19'0 0.1
2015-Jan-18 11:32N 37°43' W 122°19'0 0.0
2015-Jan-18 10:32N 37°43' W 122°19'0 0.0
2015-Jan-18 09:33N 37°43' W 122°19'4 3.8
2015-Jan-18 08:33N 37°46' W 122°21'0 0.1
2015-Jan-18 07:32N 37°46' W 122°21'0 0.1
2015-Jan-18 06:32N 37°46' W 122°21'0 0.0
2015-Jan-18 05:26N 37°46' W 122°21'0 0.1
2015-Jan-18 04:32N 37°46' W 122°21'0 0.0
2015-Jan-18 03:32N 37°46' W 122°21'0 0.0
2015-Jan-18 02:26N 37°46' W 122°21'0 0.0
2015-Jan-18 01:20N 37°46' W 122°21'0 0.2
2015-Jan-18 00:32N 37°46' W 122°21'0 0.2
2015-Jan-17 23:32N 37°46' W 122°21'0 0.0
2015-Jan-17 22:29N 37°46' W 122°21'0 0.0
2015-Jan-17 21:29N 37°46' W 122°21'0 0.0
2015-Jan-17 20:32N 37°46' W 122°21'0 0.2
2015-Jan-17 19:34N 37°47' W 122°21'3 3.3
2015-Jan-17 18:34N 37°48' W 122°17'0 0.0
2015-Jan-17 17:31N 37°48' W 122°17'  
Track history (hours):
 
Tides and Currents Weather Stations Pressure Air Temp Water Temp Dewpoint Dewpoint Depression Visibility Wind Speed Wind Dir Waves Ship Positions

Royal Melbourne

Owner: Harley Marine Services, Inc, Seattle, WA. More information available from US FCC via Universal Licensing System and Coast Guard Vessel Documentation Center.

Last reported at 2015-Jan-27 16:34 UTC. Time now 2015-Jan-27 16:58 UTC.
Position N 37°46' W 122°21'.

Length 30 m; draft 2 m.

Type: Tug. MMSI: 366998830.

Date/timePositionNaut miles runAvg speedWind from/ knotsBaromVisibWave heightAir tempDewpointWater temp
2015-Jan-27 16:34N 37°46' W 122°21'0 0.0
2015-Jan-27 15:34N 37°46' W 122°21'0 0.0
2015-Jan-27 14:34N 37°46' W 122°21'0 0.2
2015-Jan-27 13:33N 37°46' W 122°20'0 0.1
2015-Jan-27 12:33N 37°46' W 122°20'7 6.6
2015-Jan-27 11:34N 37°52' W 122°24'4 3.6
2015-Jan-27 10:33N 37°55' W 122°22'0 0.0
2015-Jan-27 09:32N 37°55' W 122°22'0 0.0
2015-Jan-27 08:32N 37°55' W 122°22'0 0.0
2015-Jan-27 07:32N 37°55' W 122°22'0 0.0
2015-Jan-27 06:32N 37°55' W 122°22'0 0.0
2015-Jan-27 05:32N 37°55' W 122°22'0 0.0
2015-Jan-27 04:32N 37°55' W 122°22'0 0.0
2015-Jan-27 03:32N 37°55' W 122°22'0 0.0
2015-Jan-27 02:32N 37°55' W 122°22'0 0.0
2015-Jan-27 01:32N 37°55' W 122°22'0 0.0
2015-Jan-27 00:32N 37°55' W 122°22'0 0.0
2015-Jan-26 23:32N 37°55' W 122°22'0 0.0
2015-Jan-26 22:32N 37°55' W 122°22'0 0.0
2015-Jan-26 21:32N 37°55' W 122°22'0 0.0
2015-Jan-26 20:32N 37°55' W 122°22'0 0.0
2015-Jan-26 19:32N 37°55' W 122°22'0 0.0
2015-Jan-26 18:32N 37°55' W 122°22'0 0.0
2015-Jan-26 17:32N 37°55' W 122°22'0 0.0
2015-Jan-26 16:32N 37°55' W 122°22'0 0.0
2015-Jan-26 15:32N 37°55' W 122°22'0 0.0
2015-Jan-26 14:33N 37°55' W 122°22'2 2.4
2015-Jan-26 13:33N 37°55' W 122°25'6 6.0
2015-Jan-26 12:33N 38°01' W 122°23'6 6.0
2015-Jan-26 11:33N 38°03' W 122°16'0 0.4
2015-Jan-26 10:30N 38°03' W 122°16'0 0.0
2015-Jan-26 09:29N 38°03' W 122°16'0 0.0
2015-Jan-26 08:29N 38°03' W 122°16'0 0.0
2015-Jan-26 07:29N 38°03' W 122°16'0 0.0
2015-Jan-26 06:29N 38°03' W 122°16'0 0.0
2015-Jan-26 05:29N 38°03' W 122°16'0 0.0
2015-Jan-26 04:17N 38°03' W 122°16'0 0.0
2015-Jan-26 03:23N 38°03' W 122°16'1 0.6
2015-Jan-26 02:33N 38°03' W 122°16'4 4.4
2015-Jan-26 01:33N 38°02' W 122°22'6 5.9
2015-Jan-26 00:33N 37°57' W 122°26'9 8.9
2015-Jan-25 23:34N 37°49' W 122°21'4 3.5
2015-Jan-25 22:31N 37°48' W 122°17'0 0.0
2015-Jan-25 21:31N 37°48' W 122°17'0 0.0
2015-Jan-25 20:31N 37°48' W 122°17'0 0.0
2015-Jan-25 19:31N 37°48' W 122°17'0 0.0
2015-Jan-25 18:31N 37°48' W 122°17'0 0.0
2015-Jan-25 17:31N 37°48' W 122°17'0 0.0
2015-Jan-25 16:31N 37°48' W 122°17'0 0.0
2015-Jan-25 15:31N 37°48' W 122°17'0 0.0
2015-Jan-25 14:31N 37°48' W 122°17'0 0.0
2015-Jan-25 13:31N 37°48' W 122°17'0 0.0
2015-Jan-25 12:31N 37°48' W 122°17'0 0.0
2015-Jan-25 11:31N 37°48' W 122°17'0 0.0
2015-Jan-25 10:31N 37°48' W 122°17'0 0.0
2015-Jan-25 09:31N 37°48' W 122°17'0 0.0
2015-Jan-25 08:34N 37°48' W 122°17'2 2.5
2015-Jan-25 07:34N 37°48' W 122°20'5 5.0
2015-Jan-25 06:34N 37°43' W 122°20'0 0.3
2015-Jan-25 05:34N 37°43' W 122°21'0 0.1
2015-Jan-25 04:33N 37°43' W 122°20'0 0.0
2015-Jan-25 03:34N 37°43' W 122°20'0 0.0
2015-Jan-25 02:34N 37°43' W 122°20'5 4.6
2015-Jan-25 01:34N 37°48' W 122°19'0 0.1
2015-Jan-25 00:32N 37°48' W 122°19'0 0.0
2015-Jan-24 23:32N 37°48' W 122°19'0 0.0
2015-Jan-24 22:32N 37°48' W 122°19'1 1.0
2015-Jan-24 21:31N 37°49' W 122°19'0 0.0
2015-Jan-24 20:31N 37°49' W 122°19'0 0.0
2015-Jan-24 19:29N 37°49' W 122°19'2 2.0
2015-Jan-24 18:33N 37°49' W 122°21'6 5.6
2015-Jan-24 17:33N 37°55' W 122°22'0 0.0
2015-Jan-24 16:31N 37°55' W 122°22'0 0.0
2015-Jan-24 15:28N 37°55' W 122°22'0 0.0
2015-Jan-24 14:28N 37°55' W 122°22'0 0.0
2015-Jan-24 13:31N 37°55' W 122°22'0 0.0
2015-Jan-24 12:28N 37°55' W 122°22'0 0.0
2015-Jan-24 11:28N 37°55' W 122°22'0 0.0
2015-Jan-24 10:33N 37°55' W 122°22'5 4.6
2015-Jan-24 09:33N 37°51' W 122°23'5 4.9
2015-Jan-24 08:33N 37°46' W 122°21'0 0.0
2015-Jan-24 07:33N 37°46' W 122°21'0 0.1
2015-Jan-24 06:33N 37°46' W 122°21'0 0.1
2015-Jan-24 05:33N 37°46' W 122°21'0 0.3
2015-Jan-24 04:33N 37°46' W 122°21'0 0.0
2015-Jan-24 03:33N 37°46' W 122°21'0 0.0
2015-Jan-24 02:30N 37°46' W 122°21'0 0.2
2015-Jan-24 01:33N 37°46' W 122°21'2 2.2
2015-Jan-24 00:33N 37°48' W 122°19'0 0.0
2015-Jan-23 23:33N 37°48' W 122°19'0 0.0
2015-Jan-23 22:33N 37°48' W 122°19'0 0.0
2015-Jan-23 21:33N 37°48' W 122°19'0 0.0
2015-Jan-23 20:33N 37°48' W 122°19'0 0.0
2015-Jan-23 19:33N 37°48' W 122°19'0 0.0
2015-Jan-23 18:33N 37°48' W 122°19'0 0.4
2015-Jan-23 17:33N 37°48' W 122°19'0 0.0
2015-Jan-23 16:33N 37°48' W 122°19'0 0.0
2015-Jan-23 15:33N 37°48' W 122°19'0 0.0
2015-Jan-23 14:33N 37°48' W 122°19'0 0.0
2015-Jan-23 13:33N 37°48' W 122°19'3 2.8
2015-Jan-23 12:33N 37°45' W 122°20'1 0.8
2015-Jan-23 11:33N 37°44' W 122°20'0 0.2
2015-Jan-23 10:33N 37°44' W 122°20'0 0.0
2015-Jan-23 09:33N 37°44' W 122°20'0 0.0
2015-Jan-23 08:33N 37°44' W 122°20'0 0.0
2015-Jan-23 07:33N 37°44' W 122°20'0 0.0
2015-Jan-23 06:33N 37°44' W 122°20'3 3.0
2015-Jan-23 05:33N 37°47' W 122°21'2 1.7
2015-Jan-23 04:23N 37°49' W 122°19'0 0.0
2015-Jan-23 03:29N 37°49' W 122°19'0 0.0
2015-Jan-23 02:33N 37°49' W 122°19'1 0.8
2015-Jan-23 01:33N 37°49' W 122°20'6 6.5
2015-Jan-23 00:33N 37°54' W 122°25'3 2.5
2015-Jan-22 23:33N 37°55' W 122°22'0 0.0
2015-Jan-22 22:33N 37°55' W 122°22'0 0.0
2015-Jan-22 21:33N 37°55' W 122°22'0 0.0
2015-Jan-22 20:33N 37°55' W 122°22'0 0.0
2015-Jan-22 19:27N 37°55' W 122°22'0 0.0
2015-Jan-22 18:33N 37°55' W 122°22'0 0.0
2015-Jan-22 17:27N 37°55' W 122°22'0 0.0
2015-Jan-22 16:33N 37°55' W 122°22'0 0.0
2015-Jan-22 15:33N 37°55' W 122°22'0 0.0
2015-Jan-22 14:33N 37°55' W 122°22'0 0.0
2015-Jan-22 13:33N 37°55' W 122°22'0 0.0
2015-Jan-22 12:33N 37°55' W 122°22'0 0.0
2015-Jan-22 11:27N 37°55' W 122°22'0 0.0
2015-Jan-22 10:33N 37°55' W 122°22'0 0.0
2015-Jan-22 09:33N 37°55' W 122°22'4 3.7
2015-Jan-22 08:33N 37°57' W 122°26'7 6.7
2015-Jan-22 07:31N 38°02' W 122°21'4 0.3
2015-Jan-21 19:29N 38°03' W 122°16'0 0.0
2015-Jan-21 18:33N 38°03' W 122°16'0 0.0
2015-Jan-21 17:33N 38°03' W 122°16'0 0.0
2015-Jan-21 16:33N 38°03' W 122°16'0 0.0
2015-Jan-21 15:33N 38°03' W 122°16'0 0.0
2015-Jan-21 14:33N 38°03' W 122°16'0 0.0
2015-Jan-21 13:34N 38°03' W 122°16'6 1.7
2015-Jan-21 10:07N 38°02' W 122°08'0 0.0
2015-Jan-21 09:33N 38°02' W 122°08'0 0.0
2015-Jan-21 08:33N 38°02' W 122°08'0 0.0
2015-Jan-21 07:33N 38°02' W 122°08'0 0.0
2015-Jan-21 06:26N 38°02' W 122°08'0 0.0
2015-Jan-21 04:33N 38°02' W 122°08'0 0.0
2015-Jan-21 03:33N 38°02' W 122°08'0 0.0
2015-Jan-21 02:27N 38°02' W 122°08'0 0.0
2015-Jan-20 23:05N 38°02' W 122°08'3 2.9
2015-Jan-20 22:10N 38°03' W 122°11'6 9.2
2015-Jan-20 21:33N 38°03' W 122°19'8 8.4
2015-Jan-20 20:34N 37°57' W 122°26'9 9.1
2015-Jan-20 19:33N 37°49' W 122°21'3 3.3
2015-Jan-20 18:32N 37°48' W 122°17'0 0.0
2015-Jan-20 17:32N 37°48' W 122°17'0 0.0
2015-Jan-20 16:32N 37°48' W 122°17'3 3.4
2015-Jan-20 15:33N 37°47' W 122°21'2 2.3
2015-Jan-20 14:33N 37°45' W 122°21'0 0.3
2015-Jan-20 13:33N 37°45' W 122°21'0 0.0
2015-Jan-20 12:33N 37°45' W 122°21'0 0.0
2015-Jan-20 11:33N 37°45' W 122°21'0 0.0
2015-Jan-20 10:33N 37°45' W 122°21'1 0.5
2015-Jan-20 09:33N 37°45' W 122°21'0 0.2
2015-Jan-20 08:33N 37°45' W 122°21'0 0.0
2015-Jan-20 07:33N 37°45' W 122°21'0 0.0
2015-Jan-20 06:33N 37°45' W 122°20'0 0.0
2015-Jan-20 05:30N 37°45' W 122°21'0 0.0
2015-Jan-20 04:31N 37°45' W 122°21'0 0.0
2015-Jan-20 03:33N 37°45' W 122°21'0 0.1
2015-Jan-20 02:31N 37°45' W 122°20'5 5.3
2015-Jan-20 01:33N 37°50' W 122°23'5 5.3
2015-Jan-20 00:33N 37°55' W 122°22'0 0.0
2015-Jan-19 23:29N 37°55' W 122°22'0 0.0
2015-Jan-19 22:29N 37°55' W 122°22'0 0.0
2015-Jan-19 21:29N 37°55' W 122°22'0 0.0
2015-Jan-19 20:32N 37°55' W 122°22'0 0.0
2015-Jan-19 19:32N 37°55' W 122°22'0 0.0
2015-Jan-19 18:32N 37°55' W 122°22'0 0.0
2015-Jan-19 17:32N 37°55' W 122°22'0 0.0
2015-Jan-19 16:32N 37°55' W 122°22'0 0.0
2015-Jan-19 15:32N 37°55' W 122°22'0 0.0
2015-Jan-19 14:33N 37°55' W 122°22'3 3.2
2015-Jan-19 13:33N 37°56' W 122°26'7 6.7
2015-Jan-19 12:30N 38°02' W 122°21'4 0.3
2015-Jan-18 21:07N 38°03' W 122°16'3 5.2
2015-Jan-18 20:27N 38°03' W 122°20'7 7.8
2015-Jan-18 19:33N 37°57' W 122°26'9 8.6
2015-Jan-18 18:33N 37°49' W 122°23'7 7.3
2015-Jan-18 17:33N 37°42' W 122°19'0 0.0
2015-Jan-18 16:29N 37°42' W 122°19'0 0.0
2015-Jan-18 15:32N 37°42' W 122°19'0 0.0
2015-Jan-18 14:26N 37°42' W 122°19'0 0.1
2015-Jan-18 13:32N 37°42' W 122°19'0 0.2
2015-Jan-18 12:32N 37°43' W 122°19'0 0.1
2015-Jan-18 11:32N 37°43' W 122°19'0 0.0
2015-Jan-18 10:32N 37°43' W 122°19'0 0.0
2015-Jan-18 09:33N 37°43' W 122°19'4 3.8
2015-Jan-18 08:33N 37°46' W 122°21'0 0.1
2015-Jan-18 07:32N 37°46' W 122°21'0 0.1
2015-Jan-18 06:32N 37°46' W 122°21'0 0.0
2015-Jan-18 05:26N 37°46' W 122°21'0 0.1
2015-Jan-18 04:32N 37°46' W 122°21'0 0.0
2015-Jan-18 03:32N 37°46' W 122°21'0 0.0
2015-Jan-18 02:26N 37°46' W 122°21'0 0.0
2015-Jan-18 01:20N 37°46' W 122°21'0 0.2
2015-Jan-18 00:32N 37°46' W 122°21'0 0.2
2015-Jan-17 23:32N 37°46' W 122°21'0 0.0
2015-Jan-17 22:29N 37°46' W 122°21'0 0.0
2015-Jan-17 21:29N 37°46' W 122°21'0 0.0
2015-Jan-17 20:32N 37°46' W 122°21'0 0.2
2015-Jan-17 19:34N 37°47' W 122°21'3 3.3
2015-Jan-17 18:34N 37°48' W 122°17'0 0.0
2015-Jan-17 17:31N 37°48' W 122°17'  

Dump ship's entire track history